sensor_id;sensor_type;location;lat;lon;timestamp;temperature;humidity
4050;DHT22;2039;50.894;6.888;2023-09-19T00:00:46;17.60;99.90
4050;DHT22;2039;50.894;6.888;2023-09-19T00:03:12;17.60;99.90
4050;DHT22;2039;50.894;6.888;2023-09-19T00:05:38;17.70;99.00
4050;DHT22;2039;50.894;6.888;2023-09-19T00:08:06;17.70;97.50
4050;DHT22;2039;50.894;6.888;2023-09-19T00:10:33;17.70;97.40
4050;DHT22;2039;50.894;6.888;2023-09-19T00:13:03;17.70;97.20
4050;DHT22;2039;50.894;6.888;2023-09-19T00:15:41;17.70;95.70
4050;DHT22;2039;50.894;6.888;2023-09-19T00:18:07;17.60;97.40
4050;DHT22;2039;50.894;6.888;2023-09-19T00:20:37;17.60;96.20
4050;DHT22;2039;50.894;6.888;2023-09-19T00:23:04;17.50;96.40
4050;DHT22;2039;50.894;6.888;2023-09-19T00:25:36;17.60;95.70
4050;DHT22;2039;50.894;6.888;2023-09-19T00:28:06;17.60;93.60
4050;DHT22;2039;50.894;6.888;2023-09-19T00:30:35;17.50;93.50
4050;DHT22;2039;50.894;6.888;2023-09-19T00:33:04;17.40;96.10
4050;DHT22;2039;50.894;6.888;2023-09-19T00:35:31;17.40;94.50
4050;DHT22;2039;50.894;6.888;2023-09-19T00:37:58;17.50;93.20
4050;DHT22;2039;50.894;6.888;2023-09-19T00:40:24;17.40;96.20
4050;DHT22;2039;50.894;6.888;2023-09-19T00:42:51;17.40;97.30
4050;DHT22;2039;50.894;6.888;2023-09-19T00:45:17;17.40;95.80
4050;DHT22;2039;50.894;6.888;2023-09-19T00:47:50;17.50;94.10
4050;DHT22;2039;50.894;6.888;2023-09-19T00:50:18;17.40;96.90
4050;DHT22;2039;50.894;6.888;2023-09-19T00:52:46;17.30;96.90
4050;DHT22;2039;50.894;6.888;2023-09-19T00:55:14;17.40;97.80
4050;DHT22;2039;50.894;6.888;2023-09-19T00:57:41;17.30;97.70
4050;DHT22;2039;50.894;6.888;2023-09-19T01:00:09;17.30;97.00
4050;DHT22;2039;50.894;6.888;2023-09-19T01:02:42;17.30;95.90
4050;DHT22;2039;50.894;6.888;2023-09-19T01:05:11;17.40;94.40
4050;DHT22;2039;50.894;6.888;2023-09-19T01:07:38;17.40;95.60
4050;DHT22;2039;50.894;6.888;2023-09-19T01:10:09;17.40;95.30
4050;DHT22;2039;50.894;6.888;2023-09-19T01:18:38;17.50;93.60
4050;DHT22;2039;50.894;6.888;2023-09-19T01:21:28;17.50;93.70
4050;DHT22;2039;50.894;6.888;2023-09-19T01:26:44;17.40;91.40
4050;DHT22;2039;50.894;6.888;2023-09-19T01:32:01;17.40;89.00
4050;DHT22;2039;50.894;6.888;2023-09-19T01:34:54;17.50;86.70
4050;DHT22;2039;50.894;6.888;2023-09-19T01:37:22;17.40;90.00
4050;DHT22;2039;50.894;6.888;2023-09-19T01:40:03;17.40;89.40
4050;DHT22;2039;50.894;6.888;2023-09-19T01:45:57;17.20;90.50
4050;DHT22;2039;50.894;6.888;2023-09-19T01:48:49;17.20;86.20
4050;DHT22;2039;50.894;6.888;2023-09-19T01:51:36;17.10;88.50
4050;DHT22;2039;50.894;6.888;2023-09-19T01:54:07;17.20;86.30
4050;DHT22;2039;50.894;6.888;2023-09-19T01:56:48;17.20;84.60
4050;DHT22;2039;50.894;6.888;2023-09-19T01:59:24;17.10;82.40
4050;DHT22;2039;50.894;6.888;2023-09-19T02:01:54;17.00;84.60
4050;DHT22;2039;50.894;6.888;2023-09-19T02:04:20;17.00;79.70
4050;DHT22;2039;50.894;6.888;2023-09-19T02:06:45;17.00;79.10
4050;DHT22;2039;50.894;6.888;2023-09-19T02:09:14;17.10;72.00
4050;DHT22;2039;50.894;6.888;2023-09-19T02:11:40;17.00;73.40
4050;DHT22;2039;50.894;6.888;2023-09-19T02:14:06;17.00;71.50
4050;DHT22;2039;50.894;6.888;2023-09-19T02:16:36;16.90;73.60
4050;DHT22;2039;50.894;6.888;2023-09-19T02:19:02;16.90;74.80
4050;DHT22;2039;50.894;6.888;2023-09-19T02:21:31;16.90;73.80
4050;DHT22;2039;50.894;6.888;2023-09-19T02:23:57;16.90;74.60
4050;DHT22;2039;50.894;6.888;2023-09-19T02:26:24;16.80;77.70
4050;DHT22;2039;50.894;6.888;2023-09-19T02:28:50;16.80;80.50
4050;DHT22;2039;50.894;6.888;2023-09-19T02:31:16;16.70;81.40
4050;DHT22;2039;50.894;6.888;2023-09-19T02:33:42;16.80;79.80
4050;DHT22;2039;50.894;6.888;2023-09-19T02:36:09;16.70;78.80
4050;DHT22;2039;50.894;6.888;2023-09-19T02:38:35;16.70;81.50
4050;DHT22;2039;50.894;6.888;2023-09-19T02:41:01;16.60;83.40
4050;DHT22;2039;50.894;6.888;2023-09-19T02:43:27;16.60;85.70
4050;DHT22;2039;50.894;6.888;2023-09-19T02:45:53;16.70;84.00
4050;DHT22;2039;50.894;6.888;2023-09-19T02:48:20;16.60;86.30
4050;DHT22;2039;50.894;6.888;2023-09-19T02:50:49;16.60;87.50
4050;DHT22;2039;50.894;6.888;2023-09-19T02:53:14;16.60;87.30
4050;DHT22;2039;50.894;6.888;2023-09-19T02:55:40;16.60;86.90
4050;DHT22;2039;50.894;6.888;2023-09-19T02:58:07;16.60;89.30
4050;DHT22;2039;50.894;6.888;2023-09-19T03:00:39;16.50;87.90
4050;DHT22;2039;50.894;6.888;2023-09-19T03:03:08;16.50;92.80
4050;DHT22;2039;50.894;6.888;2023-09-19T03:05:34;16.50;92.60
4050;DHT22;2039;50.894;6.888;2023-09-19T03:08:00;16.50;91.50
4050;DHT22;2039;50.894;6.888;2023-09-19T03:10:27;16.50;91.10
4050;DHT22;2039;50.894;6.888;2023-09-19T03:12:53;16.50;90.30
4050;DHT22;2039;50.894;6.888;2023-09-19T03:15:19;16.60;90.10
4050;DHT22;2039;50.894;6.888;2023-09-19T03:17:47;16.40;92.00
4050;DHT22;2039;50.894;6.888;2023-09-19T03:20:14;16.50;91.60
4050;DHT22;2039;50.894;6.888;2023-09-19T03:22:43;16.40;92.20
4050;DHT22;2039;50.894;6.888;2023-09-19T03:25:09;16.40;91.60
4050;DHT22;2039;50.894;6.888;2023-09-19T03:27:37;16.40;90.40
4050;DHT22;2039;50.894;6.888;2023-09-19T03:30:04;16.40;90.70
4050;DHT22;2039;50.894;6.888;2023-09-19T03:32:34;16.50;90.50
4050;DHT22;2039;50.894;6.888;2023-09-19T03:35:00;16.40;91.20
4050;DHT22;2039;50.894;6.888;2023-09-19T03:37:26;16.40;92.70
4050;DHT22;2039;50.894;6.888;2023-09-19T03:39:52;16.40;92.70
4050;DHT22;2039;50.894;6.888;2023-09-19T03:42:18;16.40;93.40
4050;DHT22;2039;50.894;6.888;2023-09-19T03:44:50;16.40;94.80
4050;DHT22;2039;50.894;6.888;2023-09-19T03:47:17;16.40;93.90
4050;DHT22;2039;50.894;6.888;2023-09-19T03:49:44;16.30;96.60
4050;DHT22;2039;50.894;6.888;2023-09-19T03:52:10;16.40;94.40
4050;DHT22;2039;50.894;6.888;2023-09-19T03:54:36;16.30;96.00
4050;DHT22;2039;50.894;6.888;2023-09-19T03:57:02;16.30;93.60
4050;DHT22;2039;50.894;6.888;2023-09-19T03:59:29;16.20;95.80
4050;DHT22;2039;50.894;6.888;2023-09-19T04:01:55;16.20;93.60
4050;DHT22;2039;50.894;6.888;2023-09-19T04:04:22;16.20;92.70
4050;DHT22;2039;50.894;6.888;2023-09-19T04:06:50;16.20;93.20
4050;DHT22;2039;50.894;6.888;2023-09-19T04:09:16;16.20;90.30
4050;DHT22;2039;50.894;6.888;2023-09-19T04:11:42;16.30;85.90
4050;DHT22;2039;50.894;6.888;2023-09-19T04:14:07;16.30;90.10
4050;DHT22;2039;50.894;6.888;2023-09-19T04:16:33;16.20;85.40
4050;DHT22;2039;50.894;6.888;2023-09-19T04:18:59;16.20;85.00
4050;DHT22;2039;50.894;6.888;2023-09-19T04:21:24;16.20;84.40
4050;DHT22;2039;50.894;6.888;2023-09-19T04:23:51;16.30;83.20
4050;DHT22;2039;50.894;6.888;2023-09-19T04:26:17;16.10;75.80
4050;DHT22;2039;50.894;6.888;2023-09-19T04:28:42;16.10;79.90
4050;DHT22;2039;50.894;6.888;2023-09-19T04:31:09;16.00;87.70
4050;DHT22;2039;50.894;6.888;2023-09-19T04:33:37;15.90;79.20
4050;DHT22;2039;50.894;6.888;2023-09-19T04:36:03;15.90;81.90
4050;DHT22;2039;50.894;6.888;2023-09-19T04:38:31;15.90;83.00
4050;DHT22;2039;50.894;6.888;2023-09-19T04:40:59;15.80;87.30
4050;DHT22;2039;50.894;6.888;2023-09-19T04:43:26;15.80;81.40
4050;DHT22;2039;50.894;6.888;2023-09-19T04:45:52;15.80;79.00
4050;DHT22;2039;50.894;6.888;2023-09-19T04:48:24;15.90;73.60
4050;DHT22;2039;50.894;6.888;2023-09-19T04:50:50;15.80;64.00
4050;DHT22;2039;50.894;6.888;2023-09-19T04:53:23;15.80;64.20
4050;DHT22;2039;50.894;6.888;2023-09-19T04:55:52;15.90;66.50
4050;DHT22;2039;50.894;6.888;2023-09-19T04:58:24;15.80;59.40
4050;DHT22;2039;50.894;6.888;2023-09-19T05:00:49;15.80;58.70
4050;DHT22;2039;50.894;6.888;2023-09-19T05:03:17;15.70;63.30
4050;DHT22;2039;50.894;6.888;2023-09-19T05:05:47;15.70;68.60
4050;DHT22;2039;50.894;6.888;2023-09-19T05:08:14;15.70;72.20
4050;DHT22;2039;50.894;6.888;2023-09-19T05:10:40;15.70;72.40
4050;DHT22;2039;50.894;6.888;2023-09-19T05:13:06;15.70;68.80
4050;DHT22;2039;50.894;6.888;2023-09-19T05:15:36;15.80;69.30
4050;DHT22;2039;50.894;6.888;2023-09-19T05:18:02;15.70;57.30
4050;DHT22;2039;50.894;6.888;2023-09-19T05:20:29;15.70;62.40
4050;DHT22;2039;50.894;6.888;2023-09-19T05:23:01;15.70;54.10
4050;DHT22;2039;50.894;6.888;2023-09-19T05:25:28;15.60;61.10
4050;DHT22;2039;50.894;6.888;2023-09-19T05:27:58;15.50;56.30
4050;DHT22;2039;50.894;6.888;2023-09-19T05:30:25;15.50;56.40
4050;DHT22;2039;50.894;6.888;2023-09-19T05:32:53;15.40;61.80
4050;DHT22;2039;50.894;6.888;2023-09-19T05:35:19;15.50;55.10
4050;DHT22;2039;50.894;6.888;2023-09-19T05:37:55;15.50;55.40
4050;DHT22;2039;50.894;6.888;2023-09-19T05:40:21;15.60;56.40
4050;DHT22;2039;50.894;6.888;2023-09-19T05:42:47;15.70;52.40
4050;DHT22;2039;50.894;6.888;2023-09-19T05:45:14;15.70;49.60
4050;DHT22;2039;50.894;6.888;2023-09-19T05:47:42;15.70;48.70
4050;DHT22;2039;50.894;6.888;2023-09-19T05:50:12;15.70;52.10
4050;DHT22;2039;50.894;6.888;2023-09-19T05:52:38;15.80;55.70
4050;DHT22;2039;50.894;6.888;2023-09-19T05:55:05;15.90;45.80
4050;DHT22;2039;50.894;6.888;2023-09-19T05:57:32;15.80;46.40
4050;DHT22;2039;50.894;6.888;2023-09-19T05:59:58;15.90;51.10
4050;DHT22;2039;50.894;6.888;2023-09-19T06:02:24;15.90;50.00
4050;DHT22;2039;50.894;6.888;2023-09-19T06:04:54;15.80;55.10
4050;DHT22;2039;50.894;6.888;2023-09-19T06:07:21;15.80;61.10
4050;DHT22;2039;50.894;6.888;2023-09-19T06:09:51;15.80;61.70
4050;DHT22;2039;50.894;6.888;2023-09-19T06:12:19;15.80;53.90
4050;DHT22;2039;50.894;6.888;2023-09-19T06:14:48;15.80;53.00
4050;DHT22;2039;50.894;6.888;2023-09-19T06:17:14;15.90;55.10
4050;DHT22;2039;50.894;6.888;2023-09-19T06:19:40;15.90;54.20
4050;DHT22;2039;50.894;6.888;2023-09-19T06:22:07;16.00;51.60
4050;DHT22;2039;50.894;6.888;2023-09-19T06:24:33;16.00;45.40
4050;DHT22;2039;50.894;6.888;2023-09-19T06:26:58;16.00;47.10
4050;DHT22;2039;50.894;6.888;2023-09-19T06:29:26;16.00;49.90
4050;DHT22;2039;50.894;6.888;2023-09-19T06:31:52;16.10;49.00
4050;DHT22;2039;50.894;6.888;2023-09-19T06:34:17;16.10;42.80
4050;DHT22;2039;50.894;6.888;2023-09-19T06:36:43;16.20;46.90
4050;DHT22;2039;50.894;6.888;2023-09-19T06:39:10;16.30;32.20
4050;DHT22;2039;50.894;6.888;2023-09-19T06:41:37;16.20;39.10
4050;DHT22;2039;50.894;6.888;2023-09-19T06:44:04;16.30;40.00
4050;DHT22;2039;50.894;6.888;2023-09-19T06:46:31;16.40;39.90
4050;DHT22;2039;50.894;6.888;2023-09-19T06:49:00;16.50;34.60
4050;DHT22;2039;50.894;6.888;2023-09-19T06:51:28;16.50;33.00
4050;DHT22;2039;50.894;6.888;2023-09-19T06:53:55;16.60;34.90
4050;DHT22;2039;50.894;6.888;2023-09-19T06:56:22;16.60;27.60
4050;DHT22;2039;50.894;6.888;2023-09-19T06:58:50;16.60;35.00
4050;DHT22;2039;50.894;6.888;2023-09-19T07:01:15;16.70;31.40
4050;DHT22;2039;50.894;6.888;2023-09-19T07:03:41;16.70;28.90
4050;DHT22;2039;50.894;6.888;2023-09-19T07:06:07;16.70;30.60
4050;DHT22;2039;50.894;6.888;2023-09-19T07:08:34;16.70;27.90
4050;DHT22;2039;50.894;6.888;2023-09-19T07:11:02;16.80;18.90
4050;DHT22;2039;50.894;6.888;2023-09-19T07:13:38;16.90;22.80
4050;DHT22;2039;50.894;6.888;2023-09-19T07:16:04;16.90;21.40
4050;DHT22;2039;50.894;6.888;2023-09-19T07:18:30;17.10;24.80
4050;DHT22;2039;50.894;6.888;2023-09-19T07:20:58;17.10;26.90
4050;DHT22;2039;50.894;6.888;2023-09-19T07:23:30;17.10;20.10
4050;DHT22;2039;50.894;6.888;2023-09-19T07:26:00;17.20;16.50
4050;DHT22;2039;50.894;6.888;2023-09-19T07:28:29;17.10;15.60
4050;DHT22;2039;50.894;6.888;2023-09-19T07:30:55;17.30;15.80
4050;DHT22;2039;50.894;6.888;2023-09-19T07:33:20;17.20;13.40
4050;DHT22;2039;50.894;6.888;2023-09-19T07:35:47;17.20;19.10
4050;DHT22;2039;50.894;6.888;2023-09-19T07:38:13;17.20;15.70
4050;DHT22;2039;50.894;6.888;2023-09-19T07:40:39;17.30;16.40
4050;DHT22;2039;50.894;6.888;2023-09-19T07:43:05;17.30;15.10
4050;DHT22;2039;50.894;6.888;2023-09-19T07:45:32;17.40;6.10
4050;DHT22;2039;50.894;6.888;2023-09-19T07:47:58;17.20;9.10
4050;DHT22;2039;50.894;6.888;2023-09-19T07:50:25;17.30;11.50
4050;DHT22;2039;50.894;6.888;2023-09-19T07:52:52;17.50;11.40
4050;DHT22;2039;50.894;6.888;2023-09-19T07:55:19;17.60;5.00
4050;DHT22;2039;50.894;6.888;2023-09-19T07:57:46;17.40;13.50
4050;DHT22;2039;50.894;6.888;2023-09-19T08:00:12;17.50;6.30
4050;DHT22;2039;50.894;6.888;2023-09-19T08:02:39;17.60;5.50
4050;DHT22;2039;50.894;6.888;2023-09-19T08:05:06;17.70;1.00
4050;DHT22;2039;50.894;6.888;2023-09-19T08:07:39;17.70;1.00
4050;DHT22;2039;50.894;6.888;2023-09-19T08:10:06;17.80;1.60
4050;DHT22;2039;50.894;6.888;2023-09-19T08:12:42;17.80;1.00
4050;DHT22;2039;50.894;6.888;2023-09-19T08:15:15;17.80;1.00
4050;DHT22;2039;50.894;6.888;2023-09-19T08:17:41;17.80;1.00
4050;DHT22;2039;50.894;6.888;2023-09-19T08:20:08;17.80;1.00
4050;DHT22;2039;50.894;6.888;2023-09-19T08:22:41;17.90;1.00
4050;DHT22;2039;50.894;6.888;2023-09-19T08:25:07;18.00;1.00
4050;DHT22;2039;50.894;6.888;2023-09-19T08:27:33;18.20;1.00
4050;DHT22;2039;50.894;6.888;2023-09-19T08:30:00;18.30;1.00
4050;DHT22;2039;50.894;6.888;2023-09-19T08:32:25;18.30;1.00
4050;DHT22;2039;50.894;6.888;2023-09-19T08:34:52;18.30;1.00
4050;DHT22;2039;50.894;6.888;2023-09-19T08:37:18;18.50;1.00
4050;DHT22;2039;50.894;6.888;2023-09-19T08:39:44;18.70;1.00
4050;DHT22;2039;50.894;6.888;2023-09-19T08:42:10;18.70;1.00
4050;DHT22;2039;50.894;6.888;2023-09-19T08:44:38;18.80;1.00
4050;DHT22;2039;50.894;6.888;2023-09-19T08:47:16;18.70;1.00
4050;DHT22;2039;50.894;6.888;2023-09-19T08:50:04;18.80;1.00
4050;DHT22;2039;50.894;6.888;2023-09-19T08:52:43;19.00;1.00
4050;DHT22;2039;50.894;6.888;2023-09-19T08:55:13;19.00;1.00
4050;DHT22;2039;50.894;6.888;2023-09-19T08:57:46;18.80;1.00
4050;DHT22;2039;50.894;6.888;2023-09-19T09:00:15;19.00;1.00
4050;DHT22;2039;50.894;6.888;2023-09-19T09:02:43;18.80;1.00
4050;DHT22;2039;50.894;6.888;2023-09-19T09:05:09;18.80;1.00
4050;DHT22;2039;50.894;6.888;2023-09-19T09:07:40;18.90;1.00
4050;DHT22;2039;50.894;6.888;2023-09-19T09:10:07;19.10;1.00
4050;DHT22;2039;50.894;6.888;2023-09-19T09:12:34;19.10;1.00
4050;DHT22;2039;50.894;6.888;2023-09-19T09:15:02;19.20;1.00
4050;DHT22;2039;50.894;6.888;2023-09-19T09:17:29;19.30;1.00
4050;DHT22;2039;50.894;6.888;2023-09-19T09:19:55;19.30;1.00
4050;DHT22;2039;50.894;6.888;2023-09-19T09:22:22;19.30;1.00
4050;DHT22;2039;50.894;6.888;2023-09-19T09:24:57;19.50;1.00
4050;DHT22;2039;50.894;6.888;2023-09-19T09:27:24;19.40;1.00
4050;DHT22;2039;50.894;6.888;2023-09-19T09:29:51;19.60;1.00
4050;DHT22;2039;50.894;6.888;2023-09-19T09:32:23;19.60;1.00
4050;DHT22;2039;50.894;6.888;2023-09-19T09:35:06;19.60;1.00
4050;DHT22;2039;50.894;6.888;2023-09-19T09:37:35;19.60;1.00
4050;DHT22;2039;50.894;6.888;2023-09-19T09:40:05;19.40;1.00
4050;DHT22;2039;50.894;6.888;2023-09-19T09:42:42;19.60;1.00
4050;DHT22;2039;50.894;6.888;2023-09-19T09:45:20;19.70;1.00
4050;DHT22;2039;50.894;6.888;2023-09-19T09:48:02;19.70;1.00
4050;DHT22;2039;50.894;6.888;2023-09-19T09:50:48;19.90;1.00
4050;DHT22;2039;50.894;6.888;2023-09-19T09:56:08;20.00;1.00
4050;DHT22;2039;50.894;6.888;2023-09-19T09:58:36;20.10;1.00
4050;DHT22;2039;50.894;6.888;2023-09-19T10:01:04;20.20;1.00
4050;DHT22;2039;50.894;6.888;2023-09-19T10:03:42;20.00;1.00
4050;DHT22;2039;50.894;6.888;2023-09-19T10:06:17;20.00;1.00
4050;DHT22;2039;50.894;6.888;2023-09-19T10:09:08;20.20;1.00
4050;DHT22;2039;50.894;6.888;2023-09-19T10:12:06;20.30;1.00
4050;DHT22;2039;50.894;6.888;2023-09-19T10:14:37;20.80;1.00
4050;DHT22;2039;50.894;6.888;2023-09-19T10:17:05;20.90;1.00
4050;DHT22;2039;50.894;6.888;2023-09-19T10:19:44;21.00;1.00
4050;DHT22;2039;50.894;6.888;2023-09-19T10:22:13;21.20;1.00
4050;DHT22;2039;50.894;6.888;2023-09-19T10:24:47;21.20;1.00
4050;DHT22;2039;50.894;6.888;2023-09-19T10:27:15;21.50;1.00
4050;DHT22;2039;50.894;6.888;2023-09-19T10:29:43;21.80;1.00
4050;DHT22;2039;50.894;6.888;2023-09-19T10:32:10;21.50;1.00
4050;DHT22;2039;50.894;6.888;2023-09-19T10:34:37;21.20;1.00
4050;DHT22;2039;50.894;6.888;2023-09-19T10:37:04;21.30;1.00
4050;DHT22;2039;50.894;6.888;2023-09-19T10:39:32;21.50;1.00
4050;DHT22;2039;50.894;6.888;2023-09-19T10:42:02;21.80;1.00
4050;DHT22;2039;50.894;6.888;2023-09-19T10:44:32;21.80;1.00
4050;DHT22;2039;50.894;6.888;2023-09-19T10:46:58;21.80;1.00
4050;DHT22;2039;50.894;6.888;2023-09-19T10:49:24;21.70;1.00
4050;DHT22;2039;50.894;6.888;2023-09-19T10:51:57;21.90;1.00
4050;DHT22;2039;50.894;6.888;2023-09-19T10:54:31;21.90;1.00
4050;DHT22;2039;50.894;6.888;2023-09-19T10:56:59;22.10;1.00
4050;DHT22;2039;50.894;6.888;2023-09-19T10:59:26;22.30;1.00
4050;DHT22;2039;50.894;6.888;2023-09-19T11:02:00;22.30;1.00
4050;DHT22;2039;50.894;6.888;2023-09-19T11:04:40;22.00;1.00
4050;DHT22;2039;50.894;6.888;2023-09-19T11:07:08;21.90;1.00
4050;DHT22;2039;50.894;6.888;2023-09-19T11:09:53;22.20;1.00
4050;DHT22;2039;50.894;6.888;2023-09-19T11:15:02;21.80;1.00
4050;DHT22;2039;50.894;6.888;2023-09-19T11:30:50;22.00;1.00
4050;DHT22;2039;50.894;6.888;2023-09-19T11:33:28;22.10;1.00
4050;DHT22;2039;50.894;6.888;2023-09-19T11:36:05;22.10;1.00
4050;DHT22;2039;50.894;6.888;2023-09-19T11:43:49;22.40;1.00
4050;DHT22;2039;50.894;6.888;2023-09-19T11:46:20;22.10;1.00
4050;DHT22;2039;50.894;6.888;2023-09-19T11:48:49;22.20;1.00
4050;DHT22;2039;50.894;6.888;2023-09-19T11:51:20;22.30;1.00
4050;DHT22;2039;50.894;6.888;2023-09-19T11:53:53;22.50;1.00
4050;DHT22;2039;50.894;6.888;2023-09-19T11:56:21;22.60;1.00
4050;DHT22;2039;50.894;6.888;2023-09-19T11:58:50;22.40;1.00
4050;DHT22;2039;50.894;6.888;2023-09-19T12:01:24;22.60;1.00
4050;DHT22;2039;50.894;6.888;2023-09-19T12:03:55;22.90;1.00
4050;DHT22;2039;50.894;6.888;2023-09-19T12:06:23;23.00;1.00
4050;DHT22;2039;50.894;6.888;2023-09-19T12:08:49;23.00;1.00
4050;DHT22;2039;50.894;6.888;2023-09-19T12:11:16;23.20;1.00
4050;DHT22;2039;50.894;6.888;2023-09-19T12:13:46;23.10;1.00
4050;DHT22;2039;50.894;6.888;2023-09-19T12:16:20;23.10;1.00
4050;DHT22;2039;50.894;6.888;2023-09-19T12:18:50;23.10;1.00
4050;DHT22;2039;50.894;6.888;2023-09-19T12:26:42;23.10;1.00
4050;DHT22;2039;50.894;6.888;2023-09-19T12:29:21;23.40;1.00
4050;DHT22;2039;50.894;6.888;2023-09-19T12:31:55;23.30;1.00
4050;DHT22;2039;50.894;6.888;2023-09-19T12:34:24;23.30;1.00
4050;DHT22;2039;50.894;6.888;2023-09-19T12:39:31;22.80;1.00
4050;DHT22;2039;50.894;6.888;2023-09-19T12:41:58;22.90;1.00
4050;DHT22;2039;50.894;6.888;2023-09-19T12:44:24;22.80;1.00
4050;DHT22;2039;50.894;6.888;2023-09-19T12:46:50;23.00;1.00
4050;DHT22;2039;50.894;6.888;2023-09-19T12:49:19;23.00;1.00
4050;DHT22;2039;50.894;6.888;2023-09-19T12:51:46;23.00;1.00
4050;DHT22;2039;50.894;6.888;2023-09-19T12:54:13;23.00;1.00
4050;DHT22;2039;50.894;6.888;2023-09-19T12:56:43;23.10;1.00
4050;DHT22;2039;50.894;6.888;2023-09-19T12:59:15;22.90;1.00
4050;DHT22;2039;50.894;6.888;2023-09-19T13:01:42;23.00;1.00
4050;DHT22;2039;50.894;6.888;2023-09-19T13:04:20;22.70;1.00
4050;DHT22;2039;50.894;6.888;2023-09-19T13:06:57;22.50;1.00
4050;DHT22;2039;50.894;6.888;2023-09-19T13:09:30;22.60;1.00
4050;DHT22;2039;50.894;6.888;2023-09-19T13:12:04;22.60;1.00
4050;DHT22;2039;50.894;6.888;2023-09-19T13:14:32;22.70;1.00
4050;DHT22;2039;50.894;6.888;2023-09-19T13:17:06;22.70;1.00
4050;DHT22;2039;50.894;6.888;2023-09-19T13:19:45;22.40;1.00
4050;DHT22;2039;50.894;6.888;2023-09-19T13:27:52;22.90;1.00
4050;DHT22;2039;50.894;6.888;2023-09-19T13:30:20;22.90;1.00
4050;DHT22;2039;50.894;6.888;2023-09-19T13:32:46;22.80;1.00
4050;DHT22;2039;50.894;6.888;2023-09-19T13:35:13;22.80;1.00
4050;DHT22;2039;50.894;6.888;2023-09-19T13:37:42;22.50;1.00
4050;DHT22;2039;50.894;6.888;2023-09-19T13:40:08;22.20;1.00
4050;DHT22;2039;50.894;6.888;2023-09-19T13:42:35;22.40;1.00
4050;DHT22;2039;50.894;6.888;2023-09-19T13:45:02;22.50;1.00
4050;DHT22;2039;50.894;6.888;2023-09-19T13:47:33;22.60;1.00
4050;DHT22;2039;50.894;6.888;2023-09-19T13:50:02;22.60;1.00
4050;DHT22;2039;50.894;6.888;2023-09-19T13:52:30;22.90;1.00
4050;DHT22;2039;50.894;6.888;2023-09-19T13:54:56;23.20;1.00
4050;DHT22;2039;50.894;6.888;2023-09-19T13:57:28;23.20;1.00
4050;DHT22;2039;50.894;6.888;2023-09-19T13:59:55;23.10;1.00
4050;DHT22;2039;50.894;6.888;2023-09-19T14:02:21;22.70;1.00
4050;DHT22;2039;50.894;6.888;2023-09-19T14:04:51;22.80;1.00
4050;DHT22;2039;50.894;6.888;2023-09-19T14:07:17;22.90;1.00
4050;DHT22;2039;50.894;6.888;2023-09-19T14:09:44;22.40;1.00
4050;DHT22;2039;50.894;6.888;2023-09-19T14:12:11;22.50;1.00
4050;DHT22;2039;50.894;6.888;2023-09-19T14:14:37;22.40;1.00
4050;DHT22;2039;50.894;6.888;2023-09-19T14:17:04;22.30;1.00
4050;DHT22;2039;50.894;6.888;2023-09-19T14:19:30;22.20;1.00
4050;DHT22;2039;50.894;6.888;2023-09-19T14:21:56;22.00;1.00
4050;DHT22;2039;50.894;6.888;2023-09-19T14:24:22;21.80;1.00
4050;DHT22;2039;50.894;6.888;2023-09-19T14:26:48;21.90;1.00
4050;DHT22;2039;50.894;6.888;2023-09-19T14:29:15;22.10;1.00
4050;DHT22;2039;50.894;6.888;2023-09-19T14:31:41;22.10;1.00
4050;DHT22;2039;50.894;6.888;2023-09-19T14:34:08;21.80;1.00
4050;DHT22;2039;50.894;6.888;2023-09-19T14:36:37;21.70;1.00
4050;DHT22;2039;50.894;6.888;2023-09-19T14:39:04;21.80;1.00
4050;DHT22;2039;50.894;6.888;2023-09-19T14:41:30;21.50;1.00
4050;DHT22;2039;50.894;6.888;2023-09-19T14:43:56;21.60;1.00
4050;DHT22;2039;50.894;6.888;2023-09-19T14:46:22;21.70;1.00
4050;DHT22;2039;50.894;6.888;2023-09-19T14:48:52;21.80;1.00
4050;DHT22;2039;50.894;6.888;2023-09-19T14:51:18;21.90;1.00
4050;DHT22;2039;50.894;6.888;2023-09-19T14:53:47;21.90;1.00
4050;DHT22;2039;50.894;6.888;2023-09-19T14:56:13;22.00;1.00
4050;DHT22;2039;50.894;6.888;2023-09-19T14:58:44;22.30;1.00
4050;DHT22;2039;50.894;6.888;2023-09-19T15:01:11;22.40;1.00
4050;DHT22;2039;50.894;6.888;2023-09-19T15:03:38;22.40;1.00
4050;DHT22;2039;50.894;6.888;2023-09-19T15:06:09;22.30;1.00
4050;DHT22;2039;50.894;6.888;2023-09-19T15:08:37;22.10;1.00
4050;DHT22;2039;50.894;6.888;2023-09-19T15:11:08;22.20;1.00
4050;DHT22;2039;50.894;6.888;2023-09-19T15:13:36;21.90;1.00
4050;DHT22;2039;50.894;6.888;2023-09-19T15:16:06;21.80;1.00
4050;DHT22;2039;50.894;6.888;2023-09-19T15:18:38;21.70;1.00
4050;DHT22;2039;50.894;6.888;2023-09-19T15:21:05;21.60;1.00
4050;DHT22;2039;50.894;6.888;2023-09-19T15:23:32;21.40;1.00
4050;DHT22;2039;50.894;6.888;2023-09-19T15:26:04;21.40;1.00
4050;DHT22;2039;50.894;6.888;2023-09-19T15:28:31;21.40;1.00
4050;DHT22;2039;50.894;6.888;2023-09-19T15:33:24;21.20;1.00
4050;DHT22;2039;50.894;6.888;2023-09-19T15:35:50;21.20;1.00
4050;DHT22;2039;50.894;6.888;2023-09-19T15:38:19;21.40;1.00
4050;DHT22;2039;50.894;6.888;2023-09-19T15:40:48;21.60;1.00
4050;DHT22;2039;50.894;6.888;2023-09-19T15:43:13;21.60;1.00
4050;DHT22;2039;50.894;6.888;2023-09-19T15:45:39;21.60;1.00
4050;DHT22;2039;50.894;6.888;2023-09-19T15:48:05;21.50;1.00
4050;DHT22;2039;50.894;6.888;2023-09-19T15:50:31;21.50;1.00
4050;DHT22;2039;50.894;6.888;2023-09-19T15:52:57;21.40;1.00
4050;DHT22;2039;50.894;6.888;2023-09-19T15:55:23;21.40;1.00
4050;DHT22;2039;50.894;6.888;2023-09-19T15:57:49;21.50;1.00
4050;DHT22;2039;50.894;6.888;2023-09-19T16:00:14;21.40;1.00
4050;DHT22;2039;50.894;6.888;2023-09-19T16:02:44;21.30;1.00
4050;DHT22;2039;50.894;6.888;2023-09-19T16:05:15;21.30;1.00
4050;DHT22;2039;50.894;6.888;2023-09-19T16:07:41;21.50;1.00
4050;DHT22;2039;50.894;6.888;2023-09-19T16:10:07;21.50;1.00
4050;DHT22;2039;50.894;6.888;2023-09-19T16:12:33;21.70;1.00
4050;DHT22;2039;50.894;6.888;2023-09-19T16:15:01;21.40;1.00
4050;DHT22;2039;50.894;6.888;2023-09-19T16:17:26;21.30;1.00
4050;DHT22;2039;50.894;6.888;2023-09-19T16:19:52;21.20;1.00
4050;DHT22;2039;50.894;6.888;2023-09-19T16:22:19;21.10;1.00
4050;DHT22;2039;50.894;6.888;2023-09-19T16:24:47;21.20;1.00
4050;DHT22;2039;50.894;6.888;2023-09-19T16:27:13;21.20;1.00
4050;DHT22;2039;50.894;6.888;2023-09-19T16:29:40;21.00;1.00
4050;DHT22;2039;50.894;6.888;2023-09-19T16:32:06;21.10;1.00
4050;DHT22;2039;50.894;6.888;2023-09-19T16:34:32;21.10;1.00
4050;DHT22;2039;50.894;6.888;2023-09-19T16:36:57;20.90;1.00
4050;DHT22;2039;50.894;6.888;2023-09-19T16:39:23;20.80;1.00
4050;DHT22;2039;50.894;6.888;2023-09-19T16:41:49;20.60;1.00
4050;DHT22;2039;50.894;6.888;2023-09-19T16:44:14;20.60;1.00
4050;DHT22;2039;50.894;6.888;2023-09-19T16:46:41;20.70;1.00
4050;DHT22;2039;50.894;6.888;2023-09-19T16:49:07;20.70;1.00
4050;DHT22;2039;50.894;6.888;2023-09-19T16:51:34;20.60;1.00
4050;DHT22;2039;50.894;6.888;2023-09-19T16:54:00;20.50;1.00
4050;DHT22;2039;50.894;6.888;2023-09-19T16:56:26;20.50;1.00
4050;DHT22;2039;50.894;6.888;2023-09-19T16:58:53;20.60;1.00
4050;DHT22;2039;50.894;6.888;2023-09-19T17:01:20;20.60;1.00
4050;DHT22;2039;50.894;6.888;2023-09-19T17:03:49;20.60;1.00
4050;DHT22;2039;50.894;6.888;2023-09-19T17:06:15;20.60;1.00
4050;DHT22;2039;50.894;6.888;2023-09-19T17:08:43;20.40;1.00
4050;DHT22;2039;50.894;6.888;2023-09-19T17:11:11;20.40;1.00
4050;DHT22;2039;50.894;6.888;2023-09-19T17:13:39;20.40;1.00